createdAt,value
2019-01-16T00:00:52.569Z,10.70
2019-01-16T00:03:56.881Z,11.40
2019-01-16T00:07:15.031Z,11.43
2019-01-16T00:10:24.205Z,9.70
2019-01-16T00:13:30.181Z,11.30
2019-01-16T00:16:29.013Z,10.00
2019-01-16T00:19:35.102Z,10.43
2019-01-16T00:22:46.849Z,9.37
2019-01-16T00:25:53.154Z,9.13
2019-01-16T00:28:58.212Z,9.60
2019-01-16T00:32:04.965Z,9.10
2019-01-16T00:35:16.540Z,9.47
2019-01-16T00:38:41.075Z,9.23
2019-01-16T00:41:56.318Z,9.43
2019-01-16T00:45:01.367Z,9.20
2019-01-16T00:48:05.668Z,9.30
2019-01-16T00:51:07.994Z,8.60
2019-01-16T00:54:22.604Z,8.23
2019-01-16T00:57:34.133Z,8.70
2019-01-16T01:00:39.235Z,7.50
2019-01-16T01:03:43.487Z,7.87
2019-01-16T01:06:55.782Z,8.60
2019-01-16T01:10:08.077Z,9.13
2019-01-16T01:13:17.829Z,11.00
2019-01-16T01:16:38.927Z,10.63
2019-01-16T01:19:39.784Z,11.17
2019-01-16T01:22:49.026Z,8.67
2019-01-16T01:25:58.207Z,8.50
2019-01-16T01:29:06.676Z,10.00
2019-01-16T01:32:11.404Z,12.47
2019-01-16T01:35:17.417Z,9.97
2019-01-16T01:38:22.500Z,10.20
2019-01-16T01:41:27.024Z,9.20
2019-01-16T01:44:31.489Z,9.00
2019-01-16T01:47:30.934Z,9.10
2019-01-16T01:50:35.644Z,10.17
2019-01-16T01:53:39.896Z,10.10
2019-01-16T01:56:55.120Z,8.80
2019-01-16T02:00:13.444Z,9.40
2019-01-16T02:03:18.231Z,10.03
2019-01-16T02:06:39.836Z,8.67
2019-01-16T02:09:34.458Z,8.40
2019-01-16T02:12:39.030Z,8.67
2019-01-16T02:15:43.108Z,9.00
2019-01-16T02:18:47.429Z,9.07
2019-01-16T02:22:02.746Z,8.70
2019-01-16T02:25:11.945Z,9.77
2019-01-16T02:28:18.193Z,13.33
2019-01-16T02:31:23.796Z,10.57
2019-01-16T02:34:29.707Z,8.20
2019-01-16T02:37:23.704Z,10.13
2019-01-16T02:40:21.238Z,8.37
2019-01-16T02:43:26.072Z,7.80
2019-01-16T02:46:29.788Z,8.33
2019-01-16T02:49:34.538Z,8.30
2019-01-16T02:52:38.672Z,9.20
2019-01-16T02:55:43.428Z,9.17
2019-01-16T02:58:52.454Z,8.60
2019-01-16T03:01:58.514Z,8.50
2019-01-16T03:05:03.576Z,8.67
2019-01-16T03:07:57.306Z,9.13
2019-01-16T03:11:09.298Z,8.07
2019-01-16T03:14:24.114Z,7.70
2019-01-16T03:17:28.502Z,6.93
2019-01-16T03:20:43.865Z,6.80
2019-01-16T03:24:02.066Z,6.90
2019-01-16T03:27:12.297Z,6.77
2019-01-16T03:30:18.519Z,7.40
2019-01-16T03:33:25.378Z,7.87
2019-01-16T03:36:40.382Z,6.43
2019-01-16T03:39:38.886Z,7.60
2019-01-16T03:42:45.123Z,8.80
2019-01-16T03:45:51.262Z,8.00
2019-01-16T03:48:55.957Z,6.67
2019-01-16T03:52:04.789Z,6.83
2019-01-16T03:55:10.575Z,6.40
2019-01-16T03:58:06.261Z,7.53
2019-01-16T04:01:24.194Z,7.60
2019-01-16T04:04:28.710Z,6.90
2019-01-16T04:07:38.775Z,6.50
2019-01-16T04:10:43.276Z,7.10
2019-01-16T04:14:00.717Z,7.40
2019-01-16T04:17:05.389Z,6.23
2019-01-16T04:20:23.597Z,7.07
2019-01-16T04:23:28.257Z,6.03
2019-01-16T04:26:37.270Z,7.37
2019-01-16T04:29:43.866Z,6.33
2019-01-16T04:32:49.608Z,7.17
2019-01-16T04:35:55.916Z,8.10
2019-01-16T04:39:11.128Z,6.40
2019-01-16T04:42:15.700Z,7.30
2019-01-16T04:45:20.568Z,5.50
2019-01-16T04:48:32.757Z,7.20
2019-01-16T04:51:34.975Z,6.67
2019-01-16T04:54:40.596Z,5.73
2019-01-16T04:58:04.556Z,6.53
2019-01-16T05:01:13.623Z,6.63
2019-01-16T05:04:25.369Z,6.63
2019-01-16T05:07:23.593Z,6.37
2019-01-16T05:10:28.259Z,5.80
2019-01-16T05:13:36.945Z,5.17
2019-01-16T05:16:41.420Z,6.80
2019-01-16T05:19:47.508Z,6.50
2019-01-16T05:23:08.627Z,5.90
2019-01-16T05:26:20.689Z,6.40
2019-01-16T05:29:39.152Z,6.90
2019-01-16T05:32:38.186Z,6.53
2019-01-16T05:35:41.294Z,6.17
2019-01-16T05:38:45.454Z,6.07
2019-01-16T05:41:45.093Z,6.47
2019-01-16T05:45:01.288Z,7.20
2019-01-16T05:48:07.265Z,7.17
2019-01-16T05:51:16.268Z,5.83
2019-01-16T05:54:20.573Z,7.50
2019-01-16T05:57:12.776Z,6.97
2019-01-16T06:00:24.445Z,5.40
2019-01-16T06:03:39.576Z,6.40
2019-01-16T06:06:55.110Z,7.43
2019-01-16T06:09:58.716Z,6.73
2019-01-16T06:13:10.939Z,7.00
2019-01-16T06:16:08.318Z,5.97
2019-01-16T06:19:32.569Z,5.67
2019-01-16T06:22:38.713Z,6.77
2019-01-16T06:25:43.946Z,5.50
2019-01-16T06:28:48.585Z,7.50
2019-01-16T06:31:55.354Z,5.10
2019-01-16T06:35:04.346Z,6.30
2019-01-16T06:38:08.706Z,5.03
2019-01-16T06:41:11.083Z,6.53
2019-01-16T06:44:09.579Z,6.53
2019-01-16T06:47:22.090Z,5.57
2019-01-16T06:50:24.187Z,7.07
2019-01-16T06:53:38.975Z,5.37
2019-01-16T06:56:57.087Z,6.10
2019-01-16T07:00:03.496Z,4.47
2019-01-16T07:03:13.699Z,5.27
2019-01-16T07:06:18.351Z,5.70
2019-01-16T07:09:38.767Z,4.90
2019-01-16T07:12:43.580Z,6.10
2019-01-16T07:15:52.861Z,4.80
2019-01-16T07:18:57.224Z,4.00
2019-01-16T07:22:15.855Z,4.60
2019-01-16T07:25:30.279Z,4.37
2019-01-16T07:28:45.365Z,4.90
2019-01-16T07:32:06.569Z,5.10
2019-01-16T07:35:13.346Z,4.37
2019-01-16T07:38:22.713Z,4.10
2019-01-16T07:41:28.786Z,4.53
2019-01-16T07:44:34.079Z,4.90
2019-01-16T07:47:34.144Z,4.77
2019-01-16T07:50:40.692Z,4.43
2019-01-16T07:53:53.570Z,6.77
2019-01-16T07:56:48.240Z,5.07
2019-01-16T07:59:55.472Z,10.13
2019-01-16T08:03:11.269Z,5.50
2019-01-16T08:06:22.930Z,5.70
2019-01-16T08:09:20.743Z,5.10
2019-01-16T08:12:27.221Z,5.90
2019-01-16T08:15:42.358Z,5.77
2019-01-16T08:18:47.543Z,5.23
2019-01-16T08:21:52.393Z,5.50
2019-01-16T08:24:57.414Z,5.03
2019-01-16T08:28:02.036Z,4.87
2019-01-16T08:31:11.338Z,5.70
2019-01-16T08:34:15.728Z,6.10
2019-01-16T08:37:15.000Z,5.10
2019-01-16T08:40:35.985Z,6.00
2019-01-16T08:43:48.698Z,5.43
2019-01-16T08:47:03.501Z,5.20
2019-01-16T08:50:08.923Z,5.90
2019-01-16T08:53:13.169Z,5.10
2019-01-16T08:56:17.770Z,6.00
2019-01-16T08:59:24.081Z,5.17
2019-01-16T09:02:28.876Z,5.87
2019-01-16T09:05:35.221Z,6.50
2019-01-16T09:08:41.358Z,6.23
2019-01-16T09:11:52.998Z,8.90
2019-01-16T09:15:09.847Z,6.03
2019-01-16T09:18:26.226Z,6.90
2019-01-16T09:21:41.827Z,7.20
2019-01-16T09:24:46.739Z,7.07
2019-01-16T09:27:52.848Z,6.80
2019-01-16T09:30:57.993Z,5.33
2019-01-16T09:34:10.817Z,5.50
2019-01-16T09:37:12.070Z,5.23
2019-01-16T09:40:26.442Z,5.00
2019-01-16T09:43:38.046Z,4.87
2019-01-16T09:46:53.773Z,5.00
2019-01-16T09:50:14.773Z,6.33
2019-01-16T09:53:18.939Z,5.30
2019-01-16T09:56:31.150Z,5.10
2019-01-16T09:59:35.850Z,5.30
2019-01-16T10:02:44.754Z,5.20
2019-01-16T10:05:47.298Z,5.30
2019-01-16T10:08:49.014Z,5.80
2019-01-16T10:11:56.330Z,4.90
2019-01-16T10:15:02.317Z,7.07
2019-01-16T10:18:07.294Z,5.70
2019-01-16T10:21:08.054Z,4.90
2019-01-16T10:24:20.846Z,5.10
2019-01-16T10:27:39.600Z,6.47
2019-01-16T10:30:54.889Z,5.93
2019-01-16T10:34:04.183Z,6.20
2019-01-16T10:37:05.083Z,6.10
2019-01-16T10:40:10.364Z,6.00
2019-01-16T10:43:16.661Z,5.90
2019-01-16T10:46:21.337Z,6.00
2019-01-16T10:49:30.403Z,5.60
2019-01-16T10:52:33.150Z,4.40
2019-01-16T10:55:38.309Z,5.70
2019-01-16T10:58:47.922Z,6.40
2019-01-16T11:02:18.059Z,6.53
2019-01-16T11:05:27.982Z,5.37
2019-01-16T11:08:55.450Z,6.67
2019-01-16T11:11:53.223Z,6.60
2019-01-16T11:15:00.760Z,6.63
2019-01-16T12:07:06.272Z,2.47
2019-01-16T12:10:19.165Z,2.83
2019-01-16T12:13:31.007Z,1.87
2019-01-16T12:16:29.042Z,2.47
2019-01-16T12:19:45.619Z,1.40
2019-01-16T12:23:02.295Z,2.30
2019-01-16T12:26:11.893Z,2.60
2019-01-16T12:29:21.510Z,3.10
2019-01-16T12:32:30.633Z,1.60
2019-01-16T12:35:40.022Z,1.40
2019-01-16T12:38:42.110Z,4.30
2019-01-16T12:41:50.819Z,1.37
2019-01-16T12:44:57.330Z,13.43
2019-01-16T12:48:02.291Z,2.03
2019-01-16T12:51:02.083Z,3.63
2019-01-16T12:54:19.796Z,1.93
2019-01-16T12:57:25.406Z,1.70
2019-01-16T13:00:36.427Z,1.73
2019-01-16T13:04:02.790Z,2.00
2019-01-16T13:21:30.327Z,1.60
2019-01-16T13:24:35.392Z,1.80
2019-01-16T13:27:40.198Z,1.90
2019-01-16T13:30:58.415Z,1.80
2019-01-16T13:34:01.755Z,2.80
2019-01-16T13:37:03.005Z,2.10
2019-01-16T13:40:06.332Z,2.37
2019-01-16T13:43:19.017Z,2.10
2019-01-16T13:46:16.827Z,2.17
2019-01-16T13:49:23.358Z,1.33
2019-01-16T13:52:36.556Z,2.07
2019-01-16T13:55:51.909Z,2.77
2019-01-16T13:58:58.131Z,3.80
2019-01-16T14:01:59.756Z,1.97
2019-01-16T14:05:14.934Z,2.90
2019-01-16T14:08:28.600Z,2.53
2019-01-16T14:11:35.010Z,4.60
2019-01-16T14:14:53.428Z,1.60
2019-01-16T14:18:14.979Z,1.43
2019-01-16T14:21:19.650Z,1.30
2019-01-16T14:24:32.125Z,1.70
2019-01-16T14:27:38.571Z,1.93
2019-01-16T14:30:44.704Z,1.43
2019-01-16T14:33:44.736Z,1.67
2019-01-16T14:36:50.749Z,2.60
2019-01-16T14:39:57.293Z,1.53
2019-01-16T14:43:01.865Z,1.43
2019-01-16T14:46:23.108Z,1.20
2019-01-16T14:49:31.259Z,1.70
2019-01-16T14:52:35.774Z,1.60
2019-01-16T14:55:40.329Z,1.50
2019-01-16T14:58:45.461Z,2.10
2019-01-16T15:01:52.016Z,2.80
2019-01-16T15:05:09.242Z,2.40
2019-01-16T15:08:18.561Z,3.60
2019-01-16T15:11:30.798Z,3.87
2019-01-16T15:14:49.325Z,2.10
2019-01-16T15:17:54.912Z,2.50
2019-01-16T15:21:16.878Z,2.87
2019-01-16T15:24:28.753Z,2.13
2019-01-16T15:27:50.262Z,2.10
2019-01-16T15:30:59.166Z,2.67
2019-01-16T15:34:11.386Z,2.73
2019-01-16T15:37:20.799Z,1.93
2019-01-16T15:40:40.266Z,2.77
2019-01-16T15:43:46.798Z,2.30
2019-01-16T15:47:05.569Z,2.03
2019-01-16T15:50:10.691Z,3.10
2019-01-16T15:53:20.232Z,2.50
2019-01-16T15:56:32.883Z,2.60
2019-01-16T15:59:39.337Z,2.53
2019-01-16T16:02:46.884Z,2.17
2019-01-16T16:05:51.709Z,3.03
2019-01-16T16:08:54.988Z,3.40
2019-01-16T16:12:07.341Z,2.63
2019-01-16T16:15:28.942Z,3.17
2019-01-16T16:18:41.039Z,3.30
2019-01-16T16:21:51.078Z,4.10
2019-01-16T16:25:00.486Z,2.93
2019-01-16T16:28:10.386Z,3.67
2019-01-16T16:31:16.169Z,2.97
2019-01-16T16:34:40.062Z,3.60
2019-01-16T16:37:46.163Z,3.43
2019-01-16T16:41:04.520Z,3.27
2019-01-16T16:44:09.261Z,3.70
2019-01-16T16:47:12.738Z,3.63
2019-01-16T16:50:13.244Z,4.27
2019-01-16T16:53:19.946Z,3.90
2019-01-16T16:56:37.738Z,4.07
2019-01-16T16:59:44.123Z,5.40
2019-01-16T17:02:59.534Z,4.50
2019-01-16T17:06:05.239Z,4.27
2019-01-16T17:09:14.256Z,4.20
2019-01-16T17:12:20.397Z,4.37
2019-01-16T17:15:20.540Z,4.50
2019-01-16T17:18:17.616Z,4.07
2019-01-16T17:21:24.173Z,4.17
2019-01-16T17:24:33.674Z,4.33
2019-01-16T17:27:38.355Z,4.43
2019-01-16T17:30:50.890Z,4.00
2019-01-16T17:33:55.735Z,3.63
2019-01-16T17:36:56.865Z,3.90
2019-01-16T17:40:15.884Z,3.90
2019-01-16T17:43:20.148Z,3.80
2019-01-16T17:46:25.344Z,3.80
2019-01-16T17:49:34.619Z,4.33
2019-01-16T17:52:49.863Z,3.83
2019-01-16T17:55:49.739Z,4.47
2019-01-16T17:58:56.335Z,3.70
2019-01-16T18:02:09.141Z,5.43
2019-01-16T18:05:18.390Z,4.87
2019-01-16T18:08:24.590Z,4.17
2019-01-16T18:11:34.436Z,4.20
2019-01-16T18:14:30.752Z,3.70
2019-01-16T18:17:33.311Z,4.10
2019-01-16T18:20:31.974Z,4.17
2019-01-16T18:23:44.726Z,4.00
2019-01-16T18:27:02.970Z,4.37
2019-01-16T18:30:07.253Z,4.00
2019-01-16T18:33:10.363Z,4.03
2019-01-16T18:36:34.644Z,3.10
2019-01-16T18:39:40.810Z,4.33
2019-01-16T18:42:53.107Z,4.67
2019-01-16T18:45:58.047Z,4.17
2019-01-16T18:49:16.230Z,4.07
2019-01-16T18:52:31.935Z,4.60
2019-01-16T18:55:46.854Z,4.90
2019-01-16T18:58:55.891Z,5.20
2019-01-16T19:02:00.869Z,4.93
2019-01-16T19:05:16.646Z,4.87
2019-01-16T19:08:27.556Z,5.10
2019-01-16T19:11:27.361Z,4.90
2019-01-16T19:14:36.104Z,4.90
2019-01-16T19:17:52.759Z,5.80
2019-01-16T19:47:11.738Z,6.07
2019-01-16T19:50:16.561Z,6.77
2019-01-16T19:53:27.625Z,5.67
2019-01-16T19:56:32.573Z,5.30
2019-01-16T19:59:27.593Z,5.57
2019-01-16T20:02:42.757Z,5.00
2019-01-16T20:05:54.098Z,5.03
2019-01-16T20:09:06.089Z,4.67
2019-01-16T20:12:12.890Z,4.60
2019-01-16T20:15:11.599Z,5.50
2019-01-16T20:18:25.855Z,4.60
2019-01-16T20:21:49.985Z,5.63
2019-01-16T20:24:49.047Z,5.57
2019-01-16T20:27:56.141Z,4.47
2019-01-16T20:31:01.245Z,5.67
2019-01-16T20:34:07.516Z,5.20
2019-01-16T20:37:25.375Z,6.07
2019-01-16T20:40:34.970Z,5.03
2019-01-16T20:43:40.984Z,4.83
2019-01-16T20:46:47.817Z,4.87
2019-01-16T20:50:05.259Z,4.93
2019-01-16T20:53:17.690Z,4.47
2019-01-16T20:56:14.854Z,4.23
2019-01-16T20:59:19.256Z,5.30
2019-01-16T21:02:37.657Z,5.00
2019-01-16T21:05:50.015Z,4.80
2019-01-16T21:09:08.419Z,4.50
2019-01-16T21:12:14.299Z,5.27
2019-01-16T21:15:26.160Z,4.57
2019-01-16T21:18:36.243Z,4.47
2019-01-16T21:21:54.859Z,4.27
2019-01-16T21:24:59.309Z,4.03
2019-01-16T21:28:05.324Z,5.17
2019-01-16T21:31:20.072Z,4.10
2019-01-16T21:34:26.102Z,4.27
2019-01-16T21:37:41.718Z,4.23
2019-01-16T21:40:50.932Z,3.00
2019-01-16T21:43:55.385Z,3.13
2019-01-16T21:46:57.289Z,3.20
2019-01-16T21:50:11.239Z,3.20
2019-01-16T21:53:22.752Z,3.73
2019-01-16T21:56:27.325Z,3.17
2019-01-16T21:59:33.248Z,3.30
2019-01-16T22:02:37.953Z,3.47
2019-01-16T22:05:49.740Z,3.50
2019-01-16T22:08:55.969Z,3.40
2019-01-16T22:12:00.714Z,2.47
2019-01-16T22:15:00.568Z,3.37
2019-01-16T22:18:05.325Z,3.27
2019-01-16T22:21:17.930Z,3.67
2019-01-16T22:24:16.057Z,2.53
2019-01-16T22:27:22.306Z,3.43
2019-01-16T22:30:28.901Z,3.90
2019-01-16T22:33:35.122Z,3.77
2019-01-16T22:36:39.916Z,3.70
2019-01-16T22:39:54.654Z,3.20
2019-01-16T22:43:03.803Z,3.90
2019-01-16T22:46:16.237Z,3.50
2019-01-16T22:49:17.120Z,3.73
2019-01-16T22:52:21.766Z,3.23
2019-01-16T22:55:26.488Z,4.20
2019-01-16T22:58:38.634Z,3.70
2019-01-16T23:01:50.236Z,4.40
2019-01-16T23:04:55.067Z,3.97
2019-01-16T23:08:05.649Z,5.17
2019-01-16T23:11:29.713Z,3.20
2019-01-16T23:14:39.231Z,3.30
2019-01-16T23:18:03.764Z,3.20
2019-01-16T23:21:08.244Z,4.30
2019-01-16T23:24:14.552Z,3.20
2019-01-16T23:27:20.716Z,3.40
2019-01-16T23:30:26.709Z,3.30
2019-01-16T23:33:35.939Z,3.40
2019-01-16T23:36:57.315Z,2.60
2019-01-16T23:40:09.245Z,2.87
2019-01-16T23:43:27.740Z,2.57
2019-01-16T23:46:49.230Z,2.30
2019-01-16T23:49:51.842Z,2.63
2019-01-16T23:53:01.054Z,2.83
2019-01-16T23:56:07.162Z,2.80
2019-01-16T23:59:28.064Z,2.60
